Time;durP1;ratioP1;P1;durP2;ratioP2;P2;SDS_P1;SDS_P2;PMS_P1;PMS_P2;Temp;Humidity;BMP_temperature;BMP_pressure;BME280_temperature;BME280_humidity;BME280_pressure;Samples;Min_cycle;Max_cycle;Signal;HPM_P1;HPM_P2
2024/03/06 00:02:20;;;;;;;;;;;;;;;4.98;100.00;96567.91;107159;1292;22518;-88
2024/03/06 00:04:46;;;;;;;;;;;;;;;4.95;100.00;96572.73;108424;1295;22512;-89
2024/03/06 00:07:13;;;;;;;;;;;;;;;4.92;100.00;96571.58;107670;1298;22481;-87
2024/03/06 00:09:39;;;;;;;;;;;;;;;4.90;100.00;96570.90;107170;1297;22570;-88
2024/03/06 00:12:06;;;;;;;;;;;;;;;4.89;100.00;96569.29;107294;1291;22513;-88
2024/03/06 00:14:32;;;;;;;;;;;;;;;4.90;100.00;96569.96;107165;1298;24250;-88
2024/03/06 00:16:59;;;;;;;;;;;;;;;4.88;100.00;96572.80;107264;1297;22609;-88
2024/03/06 00:19:30;;;;;;;;;;;;;;;4.86;100.00;96574.54;107242;1298;22701;-88
2024/03/06 00:21:56;;;;;;;;;;;;;;;4.85;100.00;96573.81;107259;1298;24311;-87
2024/03/06 00:24:23;;;;;;;;;;;;;;;4.82;100.00;96576.91;107348;1297;22546;-88
2024/03/06 00:26:49;;;;;;;;;;;;;;;4.82;100.00;96574.91;108585;1292;22501;-89
2024/03/06 00:29:16;;;;;;;;;;;;;;;4.81;100.00;96576.13;108541;1286;22446;-88
2024/03/06 00:31:42;;;;;;;;;;;;;;;4.81;100.00;96578.64;108705;1293;22455;-88
2024/03/06 00:34:09;;;;;;;;;;;;;;;4.81;100.00;96580.95;107326;1298;22521;-88
2024/03/06 00:36:36;;;;;;;;;;;;;;;4.81;100.00;96578.09;107279;1298;22461;-87
2024/03/06 00:39:04;;;;;;;;;;;;;;;4.81;100.00;96580.14;107212;1298;22583;-87
2024/03/06 00:41:31;;;;;;;;;;;;;;;4.80;100.00;96581.80;107347;1297;23967;-87
2024/03/06 00:43:57;;;;;;;;;;;;;;;4.79;100.00;96583.54;107237;1297;22546;-87
2024/03/06 00:46:24;;;;;;;;;;;;;;;4.78;100.00;96581.79;108453;1291;22486;-88
2024/03/06 00:48:50;;;;;;;;;;;;;;;4.74;100.00;96582.84;108676;1298;23119;-88
2024/03/06 00:51:17;;;;;;;;;;;;;;;4.73;100.00;96581.55;108519;1292;22439;-88
2024/03/06 00:53:44;;;;;;;;;;;;;;;4.73;100.00;96582.64;108527;1298;22489;-88
2024/03/06 00:56:10;;;;;;;;;;;;;;;4.69;100.00;96584.62;108491;1297;23252;-87
2024/03/06 00:58:37;;;;;;;;;;;;;;;4.66;100.00;96587.86;108537;1298;22457;-88
2024/03/06 01:01:04;;;;;;;;;;;;;;;4.62;100.00;96586.39;108678;1298;23101;-88
2024/03/06 01:03:30;;;;;;;;;;;;;;;4.58;100.00;96586.60;108606;1295;22440;-88
2024/03/06 01:05:57;;;;;;;;;;;;;;;4.54;100.00;96586.39;108461;1289;22426;-87
2024/03/06 01:08:24;;;;;;;;;;;;;;;4.51;100.00;96582.02;108624;1292;22461;-88
2024/03/06 01:10:51;;;;;;;;;;;;;;;4.49;100.00;96582.22;108725;1290;23199;-88
2024/03/06 01:13:18;;;;;;;;;;;;;;;4.48;100.00;96582.52;108430;1298;22487;-88
2024/03/06 01:15:45;;;;;;;;;;;;;;;4.45;100.00;96582.91;108633;1297;22520;-88
2024/03/06 01:18:11;;;;;;;;;;;;;;;4.43;100.00;96581.27;108522;1295;23208;-88
2024/03/06 01:20:40;;;;;;;;;;;;;;;4.41;100.00;96579.73;108605;1298;22487;-88
2024/03/06 01:23:06;;;;;;;;;;;;;;;4.39;100.00;96580.56;108520;1298;22438;-87
2024/03/06 01:25:33;;;;;;;;;;;;;;;4.40;100.00;96581.87;108043;1298;25391;-87
2024/03/06 01:27:59;;;;;;;;;;;;;;;4.40;100.00;96583.88;107260;1292;22560;-87
2024/03/06 01:30:26;;;;;;;;;;;;;;;4.40;100.00;96584.73;107147;1298;23202;-87
2024/03/06 01:32:53;;;;;;;;;;;;;;;4.41;100.00;96586.58;107272;1298;22525;-87
2024/03/06 01:35:19;;;;;;;;;;;;;;;4.41;100.00;96591.02;107176;1292;25294;-88
2024/03/06 01:37:46;;;;;;;;;;;;;;;4.38;100.00;96591.44;107171;1296;22524;-87
2024/03/06 01:40:12;;;;;;;;;;;;;;;4.35;100.00;96595.51;107208;1297;25401;-87
2024/03/06 01:42:39;;;;;;;;;;;;;;;4.31;100.00;96597.64;107263;1295;22521;-87
2024/03/06 01:45:07;;;;;;;;;;;;;;;4.28;100.00;96601.67;107282;1298;22500;-87
2024/03/06 01:47:33;;;;;;;;;;;;;;;4.23;100.00;96601.08;107406;1293;23826;-87
2024/03/06 01:50:00;;;;;;;;;;;;;;;4.16;100.00;96604.25;107282;1298;25133;-87
2024/03/06 01:52:27;;;;;;;;;;;;;;;4.12;100.00;96606.15;107187;1290;25213;-86
2024/03/06 01:54:54;;;;;;;;;;;;;;;4.08;100.00;96611.49;107350;1297;22559;-87
2024/03/06 01:57:21;;;;;;;;;;;;;;;4.06;100.00;96615.73;107175;1298;23340;-87
2024/03/06 01:59:47;;;;;;;;;;;;;;;4.05;100.00;96617.52;107229;1295;22567;-87
2024/03/06 02:02:14;;;;;;;;;;;;;;;4.04;100.00;96617.66;107188;1298;22544;-87
2024/03/06 02:04:40;;;;;;;;;;;;;;;4.03;100.00;96615.86;107170;1298;24225;-87
2024/03/06 02:07:13;;;;;;;;;;;;;;;4.01;100.00;96615.21;107187;1297;24193;-86
2024/03/06 02:09:39;;;;;;;;;;;;;;;3.97;100.00;96616.70;107174;1298;22572;-87
2024/03/06 02:12:08;;;;;;;;;;;;;;;3.94;100.00;96617.74;107353;1297;22528;-87
2024/03/06 02:14:35;;;;;;;;;;;;;;;3.89;100.00;96616.42;107288;1293;22530;-87
2024/03/06 02:17:01;;;;;;;;;;;;;;;3.85;100.00;96617.42;107317;1298;22573;-87
2024/03/06 02:19:41;;;;;;;;;;;;;;;3.82;100.00;96613.06;107241;1295;24285;-87
2024/03/06 02:22:08;;;;;;;;;;;;;;;3.78;100.00;96611.38;107262;1295;23273;-87
2024/03/06 02:24:35;;;;;;;;;;;;;;;3.76;100.00;96613.61;107105;1298;22521;-87
2024/03/06 02:27:01;;;;;;;;;;;;;;;3.73;100.00;96610.78;107157;1298;25382;-87
2024/03/06 02:29:27;;;;;;;;;;;;;;;3.68;100.00;96611.02;107068;1282;22515;-87
2024/03/06 02:31:54;;;;;;;;;;;;;;;3.65;100.00;96612.02;107308;1298;24295;-88
2024/03/06 02:34:20;;;;;;;;;;;;;;;3.61;100.00;96611.32;107209;1297;22770;-87
2024/03/06 02:36:47;;;;;;;;;;;;;;;3.57;100.00;96609.27;107176;1290;22513;-88
2024/03/06 02:39:14;;;;;;;;;;;;;;;3.53;100.00;96611.94;107163;1295;22615;-88
2024/03/06 02:41:41;;;;;;;;;;;;;;;3.49;100.00;96612.99;107172;1292;22529;-87
2024/03/06 02:44:08;;;;;;;;;;;;;;;3.47;100.00;96612.69;107277;1290;22568;-88
2024/03/06 02:46:35;;;;;;;;;;;;;;;3.43;100.00;96612.37;107561;1297;22496;-88
2024/03/06 02:49:01;;;;;;;;;;;;;;;3.40;100.00;96614.12;108626;1298;22853;-88
2024/03/06 02:51:27;;;;;;;;;;;;;;;3.36;100.00;96614.69;108562;1295;23250;-88
2024/03/06 02:53:54;;;;;;;;;;;;;;;3.33;100.00;96614.25;108654;1290;22485;-88
2024/03/06 02:56:21;;;;;;;;;;;;;;;3.31;100.00;96615.27;108611;1297;22452;-88
2024/03/06 02:58:47;;;;;;;;;;;;;;;3.28;100.00;96618.79;108543;1290;22475;-88
2024/03/06 03:01:14;;;;;;;;;;;;;;;3.24;100.00;96621.84;108561;1298;22439;-88
2024/03/06 03:03:41;;;;;;;;;;;;;;;3.22;100.00;96624.42;108531;1276;22891;-88
2024/03/06 03:06:07;;;;;;;;;;;;;;;3.17;100.00;96628.26;108574;1290;22459;-88
2024/03/06 03:08:34;;;;;;;;;;;;;;;3.17;100.00;96630.73;108499;1281;22435;-88
2024/03/06 03:11:01;;;;;;;;;;;;;;;3.14;100.00;96630.93;108554;1298;22464;-88
2024/03/06 03:13:27;;;;;;;;;;;;;;;3.10;100.00;96631.12;108535;1297;23172;-88
2024/03/06 03:15:54;;;;;;;;;;;;;;;3.04;100.00;96629.77;108549;1295;22972;-88
2024/03/06 03:18:20;;;;;;;;;;;;;;;2.99;100.00;96628.89;108592;1295;22509;-88
2024/03/06 03:20:48;;;;;;;;;;;;;;;2.98;100.00;96628.34;108540;1292;23155;-88
2024/03/06 03:23:21;;;;;;;;;;;;;;;2.93;100.00;96633.19;108659;1295;22450;-88
2024/03/06 03:25:48;;;;;;;;;;;;;;;2.89;100.00;96634.70;108605;1290;22458;-88
2024/03/06 03:28:15;;;;;;;;;;;;;;;2.86;100.00;96635.66;107309;1290;22562;-88
2024/03/06 03:30:45;;;;;;;;;;;;;;;2.83;100.00;96635.98;107284;1298;22726;-88
2024/03/06 03:33:11;;;;;;;;;;;;;;;2.79;100.00;96635.49;107196;1297;22693;-87
2024/03/06 03:35:38;;;;;;;;;;;;;;;2.74;100.00;96636.89;107364;1298;25275;-88
2024/03/06 03:38:04;;;;;;;;;;;;;;;2.68;100.00;96635.79;107076;1297;22557;-88
2024/03/06 03:40:32;;;;;;;;;;;;;;;2.64;100.00;96639.77;107229;1295;22657;-88
2024/03/06 03:43:05;;;;;;;;;;;;;;;2.59;100.00;96640.30;107108;1290;22582;-88
2024/03/06 03:45:33;;;;;;;;;;;;;;;2.56;100.00;96645.39;107192;1293;22525;-88
2024/03/06 03:48:02;;;;;;;;;;;;;;;2.50;100.00;96643.80;108516;1292;23085;-89
2024/03/06 03:50:29;;;;;;;;;;;;;;;2.48;100.00;96642.79;108587;1297;22468;-89
2024/03/06 03:52:57;;;;;;;;;;;;;;;2.49;100.00;96642.55;108387;1290;22474;-88
2024/03/06 03:55:24;;;;;;;;;;;;;;;2.48;100.00;96645.90;108591;1297;22446;-89
2024/03/06 03:57:52;;;;;;;;;;;;;;;2.49;100.00;96643.52;108512;1298;23030;-89
2024/03/06 04:00:18;;;;;;;;;;;;;;;2.53;100.00;96641.71;108589;1295;22461;-89
2024/03/06 04:02:45;;;;;;;;;;;;;;;2.56;100.00;96646.73;108598;1296;23188;-89
2024/03/06 04:05:12;;;;;;;;;;;;;;;2.59;100.00;96646.14;108538;1298;22438;-89
2024/03/06 04:07:38;;;;;;;;;;;;;;;2.61;100.00;96647.66;108599;1297;22447;-89
2024/03/06 04:10:05;;;;;;;;;;;;;;;2.64;100.00;96647.77;108552;1296;22476;-88
2024/03/06 04:12:32;;;;;;;;;;;;;;;2.69;100.00;96649.10;107654;1297;22555;-87
2024/03/06 04:14:58;;;;;;;;;;;;;;;2.70;100.00;96647.91;107304;1297;22540;-88
2024/03/06 04:17:25;;;;;;;;;;;;;;;2.75;100.00;96650.69;107366;1292;22503;-88
2024/03/06 04:19:53;;;;;;;;;;;;;;;2.76;100.00;96650.17;107286;1293;23256;-88
2024/03/06 04:22:21;;;;;;;;;;;;;;;2.77;100.00;96653.38;107260;1298;22524;-88
2024/03/06 04:24:48;;;;;;;;;;;;;;;2.78;100.00;96651.27;107143;1289;22469;-87
2024/03/06 04:27:16;;;;;;;;;;;;;;;2.80;100.00;96650.41;107132;1290;22536;-88
2024/03/06 04:29:43;;;;;;;;;;;;;;;2.81;100.00;96652.55;107372;1290;22557;-87
2024/03/06 04:32:09;;;;;;;;;;;;;;;2.81;100.00;96652.04;107308;1292;22517;-88
2024/03/06 04:34:36;;;;;;;;;;;;;;;2.82;100.00;96654.66;107194;1298;22789;-88
2024/03/06 04:37:02;;;;;;;;;;;;;;;2.84;100.00;96656.23;107254;1290;23543;-88
2024/03/06 04:39:29;;;;;;;;;;;;;;;2.86;100.00;96662.33;107266;1290;22540;-88
2024/03/06 04:41:55;;;;;;;;;;;;;;;2.90;100.00;96661.58;107243;1298;22635;-88
2024/03/06 04:44:22;;;;;;;;;;;;;;;2.92;100.00;96662.40;107262;1298;23013;-88
2024/03/06 04:46:51;;;;;;;;;;;;;;;2.92;100.00;96661.20;107284;1297;23831;-88
2024/03/06 04:49:18;;;;;;;;;;;;;;;2.93;100.00;96664.20;107189;1296;22555;-88
2024/03/06 04:51:44;;;;;;;;;;;;;;;2.93;100.00;96661.94;107239;1298;22627;-88
2024/03/06 04:54:11;;;;;;;;;;;;;;;2.94;100.00;96661.70;107308;1290;25411;-88
2024/03/06 04:56:37;;;;;;;;;;;;;;;2.94;100.00;96665.84;107272;1290;22576;-88
2024/03/06 04:59:04;;;;;;;;;;;;;;;2.92;100.00;96667.70;107160;1295;24870;-87
2024/03/06 05:01:30;;;;;;;;;;;;;;;2.89;100.00;96669.69;107251;1298;22521;-88
2024/03/06 05:03:57;;;;;;;;;;;;;;;2.83;100.00;96669.98;107022;1297;22556;-88
2024/03/06 05:06:23;;;;;;;;;;;;;;;2.79;100.00;96670.19;107280;1292;22553;-88
2024/03/06 05:08:50;;;;;;;;;;;;;;;2.74;100.00;96672.08;107279;1297;22476;-88
2024/03/06 05:11:16;;;;;;;;;;;;;;;2.68;100.00;96672.60;107286;1297;22704;-88
2024/03/06 05:13:43;;;;;;;;;;;;;;;2.61;100.00;96674.74;107310;1295;25398;-88
2024/03/06 05:16:09;;;;;;;;;;;;;;;2.52;100.00;96672.09;107307;1297;22533;-87
2024/03/06 05:18:36;;;;;;;;;;;;;;;2.45;100.00;96677.44;107369;1287;22521;-88
2024/03/06 05:21:03;;;;;;;;;;;;;;;2.38;100.00;96680.34;107134;1298;22627;-88
2024/03/06 05:23:29;;;;;;;;;;;;;;;2.32;100.00;96682.84;107467;1292;25568;-88
2024/03/06 05:25:56;;;;;;;;;;;;;;;2.27;100.00;96685.17;107239;1297;24022;-88
2024/03/06 05:28:22;;;;;;;;;;;;;;;2.23;100.00;96686.67;107210;1298;22519;-87
2024/03/06 05:30:49;;;;;;;;;;;;;;;2.22;100.00;96685.94;107282;1295;22568;-88
2024/03/06 05:33:15;;;;;;;;;;;;;;;2.21;100.00;96691.46;107182;1297;22539;-87
2024/03/06 05:35:42;;;;;;;;;;;;;;;2.20;100.00;96690.35;107246;1293;22822;-88
2024/03/06 05:38:09;;;;;;;;;;;;;;;2.20;100.00;96692.44;107274;1292;22558;-88
2024/03/06 05:40:37;;;;;;;;;;;;;;;2.21;100.00;96696.38;107141;1298;22567;-87
2024/03/06 05:43:04;;;;;;;;;;;;;;;2.23;100.00;96696.55;107278;1298;25417;-88
2024/03/06 05:45:30;;;;;;;;;;;;;;;2.26;100.00;96695.52;107421;1289;24885;-88
2024/03/06 05:47:57;;;;;;;;;;;;;;;2.28;100.00;96697.25;107378;1297;22528;-87
2024/03/06 05:50:23;;;;;;;;;;;;;;;2.28;100.00;96698.27;107114;1298;22584;-88
2024/03/06 05:52:50;;;;;;;;;;;;;;;2.26;100.00;96697.39;107165;1298;22517;-88
2024/03/06 05:55:16;;;;;;;;;;;;;;;2.21;100.00;96698.63;107302;1295;22560;-88
2024/03/06 05:57:46;;;;;;;;;;;;;;;2.19;100.00;96697.95;107178;1297;22526;-88
2024/03/06 06:00:13;;;;;;;;;;;;;;;2.18;100.00;96702.00;107150;1289;22514;-88
2024/03/06 06:02:39;;;;;;;;;;;;;;;2.15;100.00;96705.17;107157;1296;22565;-88
2024/03/06 06:05:07;;;;;;;;;;;;;;;2.12;100.00;96705.19;107180;1297;24279;-88
2024/03/06 06:07:33;;;;;;;;;;;;;;;2.10;100.00;96711.80;107177;1297;22552;-87
2024/03/06 06:10:00;;;;;;;;;;;;;;;2.10;100.00;96715.23;107258;1298;24200;-87
2024/03/06 06:12:26;;;;;;;;;;;;;;;2.08;100.00;96714.48;107178;1298;22524;-88
2024/03/06 06:14:53;;;;;;;;;;;;;;;2.05;100.00;96713.23;107150;1297;22524;-88
2024/03/06 06:17:20;;;;;;;;;;;;;;;2.02;100.00;96713.98;107208;1297;22572;-88
2024/03/06 06:19:51;;;;;;;;;;;;;;;1.99;100.00;96711.52;107183;1298;22608;-88
2024/03/06 06:22:17;;;;;;;;;;;;;;;1.97;100.00;96712.48;107243;1298;22557;-87
2024/03/06 06:24:45;;;;;;;;;;;;;;;1.96;100.00;96715.17;107356;1297;22529;-88
2024/03/06 06:27:12;;;;;;;;;;;;;;;1.94;100.00;96716.65;107388;1295;22520;-87
2024/03/06 06:29:39;;;;;;;;;;;;;;;1.93;100.00;96715.36;107315;1297;22693;-88
2024/03/06 06:32:05;;;;;;;;;;;;;;;1.91;100.00;96714.83;107179;1297;22564;-88
2024/03/06 06:34:32;;;;;;;;;;;;;;;1.91;100.00;96714.34;107270;1293;23294;-88
2024/03/06 06:36:58;;;;;;;;;;;;;;;1.91;100.00;96711.91;107431;1292;22527;-88
2024/03/06 06:39:25;;;;;;;;;;;;;;;1.92;100.00;96713.27;107134;1292;23992;-88
2024/03/06 06:41:51;;;;;;;;;;;;;;;1.93;100.00;96714.03;107152;1298;24201;-87
2024/03/06 06:44:18;;;;;;;;;;;;;;;1.93;100.00;96713.12;107156;1297;22559;-88
2024/03/06 06:46:44;;;;;;;;;;;;;;;1.94;100.00;96713.93;107079;1298;22537;-85
2024/03/06 06:49:11;;;;;;;;;;;;;;;1.94;100.00;96715.10;107265;1292;22520;-85
2024/03/06 06:51:38;;;;;;;;;;;;;;;1.96;100.00;96718.23;107279;1276;23936;-85
2024/03/06 06:54:04;;;;;;;;;;;;;;;1.99;100.00;96717.33;107353;1292;22665;-84
2024/03/06 06:56:31;;;;;;;;;;;;;;;2.02;100.00;96717.56;108612;1298;23043;-85
2024/03/06 06:58:57;;;;;;;;;;;;;;;2.07;100.00;96722.09;108692;1298;22439;-85
2024/03/06 07:01:23;;;;;;;;;;;;;;;2.11;100.00;96728.79;108551;1298;23587;-85
2024/03/06 07:03:50;;;;;;;;;;;;;;;2.10;100.00;96725.70;108532;1297;22453;-85
2024/03/06 07:06:16;;;;;;;;;;;;;;;2.05;100.00;96725.17;108602;1296;22469;-85
2024/03/06 07:08:43;;;;;;;;;;;;;;;2.02;100.00;96724.06;108468;1297;22459;-86
2024/03/06 07:11:10;;;;;;;;;;;;;;;2.01;100.00;96729.08;108627;1298;22443;-85
2024/03/06 07:13:37;;;;;;;;;;;;;;;2.01;100.00;96729.15;108481;1292;22428;-85
2024/03/06 07:16:04;;;;;;;;;;;;;;;1.99;100.00;96733.21;108535;1292;22417;-85
2024/03/06 07:18:30;;;;;;;;;;;;;;;1.95;100.00;96734.55;108634;1291;22468;-86
2024/03/06 07:21:00;;;;;;;;;;;;;;;1.95;100.00;96734.40;108640;1296;22479;-85
2024/03/06 07:23:27;;;;;;;;;;;;;;;1.95;100.00;96734.21;107312;1298;22534;-85
2024/03/06 07:25:53;;;;;;;;;;;;;;;1.93;100.00;96734.52;107315;1297;25386;-84
2024/03/06 07:28:21;;;;;;;;;;;;;;;1.96;100.00;96736.20;107200;1292;24247;-84
2024/03/06 07:30:48;;;;;;;;;;;;;;;1.99;100.00;96733.40;107140;1298;24202;-85
2024/03/06 07:33:14;;;;;;;;;;;;;;;2.03;100.00;96734.89;107229;1298;24032;-85
2024/03/06 07:35:41;;;;;;;;;;;;;;;2.08;100.00;96733.88;107303;1292;22537;-84
2024/03/06 07:38:07;;;;;;;;;;;;;;;2.12;100.00;96732.15;107330;1293;22549;-84
2024/03/06 07:40:33;;;;;;;;;;;;;;;2.16;100.00;96731.86;107222;1298;22486;-85
2024/03/06 07:43:00;;;;;;;;;;;;;;;2.20;100.00;96734.46;107205;1293;25256;-84
2024/03/06 07:45:27;;;;;;;;;;;;;;;2.24;100.00;96730.14;107354;1298;22642;-85
2024/03/06 07:47:53;;;;;;;;;;;;;;;2.30;100.00;96728.02;107440;1294;22691;-84
2024/03/06 07:50:20;;;;;;;;;;;;;;;2.38;100.00;96731.64;107295;1298;22835;-84
2024/03/06 07:52:46;;;;;;;;;;;;;;;2.45;100.00;96733.00;107434;1276;24226;-85
2024/03/06 07:55:12;;;;;;;;;;;;;;;2.52;100.00;96734.98;107307;1291;22605;-84
2024/03/06 07:57:38;;;;;;;;;;;;;;;2.59;100.00;96737.12;107191;1292;23026;-84
2024/03/06 08:00:14;;;;;;;;;;;;;;;2.66;100.00;96738.56;107200;1282;22728;-85
2024/03/06 08:02:43;;;;;;;;;;;;;;;2.74;100.00;96739.31;107242;1282;23042;-84
2024/03/06 08:05:14;;;;;;;;;;;;;;;2.77;100.00;96737.23;107216;1298;22879;-85
2024/03/06 08:07:41;;;;;;;;;;;;;;;2.81;100.00;96737.89;107162;1281;23861;-85
2024/03/06 08:10:13;;;;;;;;;;;;;;;2.88;100.00;96740.44;107191;1293;22477;-85
2024/03/06 08:12:40;;;;;;;;;;;;;;;2.95;100.00;96738.48;107201;1298;25429;-84
2024/03/06 08:15:09;;;;;;;;;;;;;;;3.00;100.00;96737.73;107169;1279;22497;-85
2024/03/06 08:17:35;;;;;;;;;;;;;;;3.07;100.00;96737.15;107164;1298;22521;-84
2024/03/06 08:20:01;;;;;;;;;;;;;;;3.09;100.00;96737.17;107154;1293;22482;-85
2024/03/06 08:22:27;;;;;;;;;;;;;;;3.05;100.00;96738.35;107052;1298;22666;-84
2024/03/06 08:24:53;;;;;;;;;;;;;;;2.99;100.00;96739.00;107140;1298;22572;-85
2024/03/06 08:27:20;;;;;;;;;;;;;;;2.92;100.00;96746.25;107121;1298;23878;-85
2024/03/06 17:01:14;;;;;;;;;;;;;;;3.14;100.00;96773.90;109435;1267;22488;-86
2024/03/06 17:03:45;;;;;;;;;;;;;;;3.10;100.00;96779.02;108524;1296;22430;-86
2024/03/06 17:06:11;;;;;;;;;;;;;;;3.10;100.00;96778.03;108527;1296;22443;-86
2024/03/06 17:08:38;;;;;;;;;;;;;;;3.03;100.00;96782.27;108593;1296;22447;-87
2024/03/06 17:11:04;;;;;;;;;;;;;;;3.04;100.00;96784.98;108558;1292;23185;-86
2024/03/06 17:13:31;;;;;;;;;;;;;;;3.05;100.00;96782.86;108511;1296;22451;-86
2024/03/06 17:15:57;;;;;;;;;;;;;;;3.05;100.00;96784.02;108834;1292;22472;-86
2024/03/06 17:18:24;;;;;;;;;;;;;;;3.07;100.00;96788.98;108735;1292;22440;-86
2024/03/06 17:20:52;;;;;;;;;;;;;;;3.08;100.00;96791.17;108546;1295;22464;-86
2024/03/06 17:23:18;;;;;;;;;;;;;;;3.11;100.00;96790.27;108542;1292;22586;-86
2024/03/06 17:25:45;;;;;;;;;;;;;;;3.13;100.00;96790.36;108559;1292;22515;-86
2024/03/06 17:28:12;;;;;;;;;;;;;;;3.15;100.00;96792.83;108523;1296;22626;-87
2024/03/06 17:30:39;;;;;;;;;;;;;;;3.13;100.00;96794.02;108664;1292;22458;-87
2024/03/06 17:33:05;;;;;;;;;;;;;;;3.11;100.00;96793.46;108725;1296;22473;-86
2024/03/06 17:35:32;;;;;;;;;;;;;;;3.12;100.00;96794.81;108547;1296;22458;-87
2024/03/06 17:37:58;;;;;;;;;;;;;;;3.14;100.00;96793.08;108718;1296;22447;-86
2024/03/06 17:40:25;;;;;;;;;;;;;;;3.15;100.00;96793.30;108733;1296;22444;-86
2024/03/06 17:42:51;;;;;;;;;;;;;;;3.18;100.00;96793.03;108850;1289;22530;-87
2024/03/06 17:45:18;;;;;;;;;;;;;;;3.21;100.00;96788.04;108717;1295;22445;-87
2024/03/06 17:47:45;;;;;;;;;;;;;;;3.22;100.00;96789.45;108624;1293;22469;-86
2024/03/06 17:50:12;;;;;;;;;;;;;;;3.25;100.00;96785.13;108522;1296;22445;-86
2024/03/06 17:52:39;;;;;;;;;;;;;;;3.25;100.00;96784.59;108715;1291;22459;-86
2024/03/06 17:55:05;;;;;;;;;;;;;;;3.23;100.00;96789.08;108655;1286;22467;-86
2024/03/06 17:57:32;;;;;;;;;;;;;;;3.25;100.00;96783.21;108715;1296;22461;-87
2024/03/06 17:59:59;;;;;;;;;;;;;;;3.26;100.00;96782.77;108610;1296;22454;-86
2024/03/06 18:02:26;;;;;;;;;;;;;;;3.27;100.00;96786.86;108839;1296;22482;-86
2024/03/06 18:04:53;;;;;;;;;;;;;;;3.26;100.00;96788.80;108638;1296;22410;-87
2024/03/06 18:07:19;;;;;;;;;;;;;;;3.23;100.00;96789.76;107266;1292;25426;-88
2024/03/06 18:09:48;;;;;;;;;;;;;;;3.22;100.00;96788.08;107328;1292;23755;-88
2024/03/06 18:12:14;;;;;;;;;;;;;;;3.22;100.00;96788.45;107823;1292;22661;-88
2024/03/06 18:14:41;;;;;;;;;;;;;;;3.22;100.00;96788.09;108568;1292;22465;-88
2024/03/06 18:17:07;;;;;;;;;;;;;;;3.22;100.00;96788.80;108649;1296;22419;-86
2024/03/06 18:19:33;;;;;;;;;;;;;;;3.22;100.00;96786.05;107552;1292;22549;-88
2024/03/06 18:22:00;;;;;;;;;;;;;;;3.22;100.00;96787.61;107180;1295;22523;-88
2024/03/06 18:24:26;;;;;;;;;;;;;;;3.23;100.00;96786.77;107339;1296;22993;-88
2024/03/06 18:26:53;;;;;;;;;;;;;;;3.24;100.00;96787.95;107345;1287;23922;-88
2024/03/06 18:29:19;;;;;;;;;;;;;;;3.21;100.00;96789.88;107378;1294;23340;-88
2024/03/06 18:31:46;;;;;;;;;;;;;;;3.17;100.00;96791.14;108626;1292;22528;-86
2024/03/06 18:34:13;;;;;;;;;;;;;;;3.14;100.00;96791.14;108709;1292;22443;-86
2024/03/06 18:36:39;;;;;;;;;;;;;;;3.17;100.00;96788.38;107405;1297;23153;-88
2024/03/06 18:39:07;;;;;;;;;;;;;;;3.20;100.00;96788.82;107162;1296;23661;-88
2024/03/06 18:41:33;;;;;;;;;;;;;;;3.20;100.00;96788.55;107200;1296;22551;-87
2024/03/06 18:44:00;;;;;;;;;;;;;;;3.20;100.00;96786.17;107444;1296;24378;-88
2024/03/06 18:46:28;;;;;;;;;;;;;;;3.20;100.00;96787.77;107159;1289;22555;-88
2024/03/06 18:48:56;;;;;;;;;;;;;;;3.22;100.00;96785.69;107344;1296;22488;-88
2024/03/06 18:51:22;;;;;;;;;;;;;;;3.24;100.00;96786.59;107526;1296;22528;-88
2024/03/06 18:53:49;;;;;;;;;;;;;;;3.24;100.00;96784.98;107518;1295;22500;-88
2024/03/06 18:56:16;;;;;;;;;;;;;;;3.24;100.00;96784.11;107188;1296;23372;-88
2024/03/06 18:58:43;;;;;;;;;;;;;;;3.23;100.00;96785.64;107461;1295;22518;-84
2024/03/06 19:01:10;;;;;;;;;;;;;;;3.21;100.00;96782.88;107396;1286;23457;-84
2024/03/06 19:03:37;;;;;;;;;;;;;;;3.17;100.00;96788.16;107574;1296;22631;-84
2024/03/06 19:06:03;;;;;;;;;;;;;;;3.15;100.00;96788.52;107642;1296;22664;-84
2024/03/06 19:08:30;;;;;;;;;;;;;;;3.16;100.00;96789.16;107612;1289;22574;-85
2024/03/06 19:10:56;;;;;;;;;;;;;;;3.16;100.00;96788.27;107640;1292;22566;-84
2024/03/06 19:13:23;;;;;;;;;;;;;;;3.14;100.00;96789.98;107582;1279;22538;-84
2024/03/06 19:15:49;;;;;;;;;;;;;;;3.11;100.00;96793.98;107615;1296;24917;-85
2024/03/06 19:18:16;;;;;;;;;;;;;;;3.11;100.00;96793.67;107641;1289;22521;-84
2024/03/06 19:20:42;;;;;;;;;;;;;;;3.10;100.00;96792.89;107623;1296;22517;-84
2024/03/06 19:23:08;;;;;;;;;;;;;;;3.07;100.00;96791.57;107610;1296;22539;-84
2024/03/06 19:25:35;;;;;;;;;;;;;;;3.04;100.00;96791.48;107595;1290;22557;-84
2024/03/06 19:28:03;;;;;;;;;;;;;;;3.03;100.00;96789.36;107414;1292;22565;-85
2024/03/06 19:30:29;;;;;;;;;;;;;;;2.99;100.00;96790.81;107570;1296;23711;-84
2024/03/06 19:32:56;;;;;;;;;;;;;;;2.99;100.00;96793.20;107614;1289;25358;-84
2024/03/06 19:35:22;;;;;;;;;;;;;;;2.98;100.00;96792.11;107622;1296;25268;-84
2024/03/06 19:37:48;;;;;;;;;;;;;;;2.96;100.00;96792.41;107632;1296;24000;-84
2024/03/06 19:40:15;;;;;;;;;;;;;;;2.94;100.00;96790.59;107647;1289;22526;-84
2024/03/06 19:42:41;;;;;;;;;;;;;;;2.92;100.00;96795.66;107619;1296;22596;-85
2024/03/06 19:45:10;;;;;;;;;;;;;;;2.90;100.00;96802.31;107344;1296;22557;-84
2024/03/06 19:47:36;;;;;;;;;;;;;;;2.88;100.00;96806.45;107620;1293;22535;-84
2024/03/06 19:50:04;;;;;;;;;;;;;;;2.84;100.00;96806.41;107684;1277;22537;-84
2024/03/06 19:52:31;;;;;;;;;;;;;;;2.80;100.00;96809.36;107652;1296;23100;-84
2024/03/06 19:54:58;;;;;;;;;;;;;;;2.76;100.00;96811.90;107599;1292;22545;-84
2024/03/06 19:57:24;;;;;;;;;;;;;;;2.71;100.00;96817.41;107229;1280;22561;-84
2024/03/06 19:59:51;;;;;;;;;;;;;;;2.65;100.00;96820.63;107488;1295;22592;-85
2024/03/06 20:02:18;;;;;;;;;;;;;;;2.59;100.00;96817.81;107275;1292;22624;-84
2024/03/06 20:04:49;;;;;;;;;;;;;;;2.56;100.00;96817.75;107239;1282;22558;-85
2024/03/06 20:07:15;;;;;;;;;;;;;;;2.51;100.00;96819.02;107619;1292;22529;-84
2024/03/06 20:09:41;;;;;;;;;;;;;;;2.48;100.00;96820.96;107616;1292;24746;-84
2024/03/06 20:12:07;;;;;;;;;;;;;;;2.46;100.00;96819.58;107601;1283;22482;-84
2024/03/06 20:14:35;;;;;;;;;;;;;;;2.43;100.00;96819.98;107387;1296;22548;-84
2024/03/06 20:17:02;;;;;;;;;;;;;;;2.39;100.00;96818.38;107353;1296;22631;-84
2024/03/06 20:19:28;;;;;;;;;;;;;;;2.39;100.00;96819.56;107574;1289;22517;-84
2024/03/06 20:21:55;;;;;;;;;;;;;;;2.39;100.00;96822.18;107590;1289;22633;-84
2024/03/06 20:24:23;;;;;;;;;;;;;;;2.37;100.00;96827.28;107598;1289;22535;-84
2024/03/06 20:26:50;;;;;;;;;;;;;;;2.36;100.00;96828.76;107641;1296;22506;-84
2024/03/06 20:29:16;;;;;;;;;;;;;;;2.33;100.00;96827.79;107647;1296;23308;-84
2024/03/06 20:31:46;;;;;;;;;;;;;;;2.31;100.00;96831.16;107593;1295;22564;-84
2024/03/06 20:34:13;;;;;;;;;;;;;;;2.31;100.00;96832.56;108822;1296;22458;-84
2024/03/06 20:36:39;;;;;;;;;;;;;;;2.32;100.00;96833.64;108853;1289;22540;-84
2024/03/06 20:39:06;;;;;;;;;;;;;;;2.31;100.00;96837.84;107608;1296;25394;-84
2024/03/06 20:41:33;;;;;;;;;;;;;;;2.31;100.00;96834.92;107638;1296;24285;-84
2024/03/06 20:43:59;;;;;;;;;;;;;;;2.33;100.00;96840.09;107572;1295;22558;-84
2024/03/06 20:46:25;;;;;;;;;;;;;;;2.33;100.00;96840.63;107613;1289;22555;-84
2024/03/06 20:48:52;;;;;;;;;;;;;;;2.31;100.00;96841.99;107593;1286;25087;-84
2024/03/06 20:51:18;;;;;;;;;;;;;;;2.30;100.00;96844.45;107394;1296;24004;-84
2024/03/06 20:53:45;;;;;;;;;;;;;;;2.27;100.00;96844.48;107564;1295;22513;-84
2024/03/06 20:56:11;;;;;;;;;;;;;;;2.26;100.00;96840.41;107568;1296;22631;-84
2024/03/06 20:58:38;;;;;;;;;;;;;;;2.24;100.00;96841.96;107360;1296;25125;-84
2024/03/06 21:01:05;;;;;;;;;;;;;;;2.21;100.00;96842.02;107261;1292;25294;-84
2024/03/06 21:03:31;;;;;;;;;;;;;;;2.22;100.00;96844.55;107565;1279;25254;-84
2024/03/06 21:05:58;;;;;;;;;;;;;;;2.23;100.00;96843.44;107607;1296;22618;-84